createdAt,value
2017-12-27T00:02:25.491Z,2.60
2017-12-27T00:04:58.696Z,2.60
2017-12-27T00:07:31.812Z,2.70
2017-12-27T00:10:04.965Z,2.70
2017-12-27T00:12:38.233Z,2.70
2017-12-27T00:15:11.499Z,2.70
2017-12-27T00:17:44.847Z,2.70
2017-12-27T00:23:23.803Z,2.70
2017-12-27T00:25:57.098Z,2.70
2017-12-27T00:28:39.539Z,2.70
2017-12-27T00:31:09.878Z,2.70
2017-12-27T00:33:37.422Z,2.60
2017-12-27T00:36:04.937Z,2.70
2017-12-27T00:38:33.237Z,2.70
2017-12-27T00:41:01.509Z,2.70
2017-12-27T00:43:29.034Z,2.70
2017-12-27T00:45:56.546Z,2.70
2017-12-27T00:48:24.086Z,2.70
2017-12-27T00:50:52.382Z,2.70
2017-12-27T00:53:19.946Z,2.70
2017-12-27T00:55:47.458Z,2.70
2017-12-27T00:58:15.763Z,2.60
2017-12-27T01:00:44.046Z,2.60
2017-12-27T01:03:11.594Z,2.60
2017-12-27T01:05:39.109Z,2.60
2017-12-27T01:08:06.633Z,2.60
2017-12-27T01:10:34.919Z,2.60
2017-12-27T01:13:03.232Z,2.50
2017-12-27T01:15:31.546Z,2.40
2017-12-27T01:17:59.093Z,2.40
2017-12-27T01:20:26.610Z,2.40
2017-12-27T01:22:55.229Z,2.20
2017-12-27T01:25:22.802Z,2.20
2017-12-27T01:27:50.317Z,2.20
2017-12-27T01:30:17.854Z,2.10
2017-12-27T01:32:46.142Z,2.10
2017-12-27T01:35:13.671Z,2.10
2017-12-27T01:37:41.198Z,2.20
2017-12-27T01:40:08.734Z,2.20
2017-12-27T01:42:39.502Z,2.30
2017-12-27T01:45:07.039Z,2.30
2017-12-27T01:47:35.311Z,2.40
2017-12-27T01:50:02.840Z,2.40
2017-12-27T01:52:31.104Z,2.60
2017-12-27T01:54:58.633Z,2.60
2017-12-27T01:57:26.906Z,2.70
2017-12-27T01:59:54.450Z,2.70
2017-12-27T02:02:21.952Z,2.80
2017-12-27T02:04:49.505Z,2.80
2017-12-27T02:07:17.050Z,2.70
2017-12-27T02:09:45.353Z,2.80
2017-12-27T02:12:12.882Z,2.80
2017-12-27T02:14:40.425Z,2.80
2017-12-27T02:17:08.694Z,2.80
2017-12-27T02:19:36.230Z,2.80
2017-12-27T02:22:04.514Z,2.80
2017-12-27T02:24:32.036Z,2.70
2017-12-27T02:26:59.547Z,2.70
2017-12-27T02:29:27.076Z,2.70
2017-12-27T02:31:55.357Z,2.60
2017-12-27T02:34:22.898Z,2.60
2017-12-27T02:36:50.412Z,2.60
2017-12-27T02:39:29.826Z,2.70
2017-12-27T02:41:58.099Z,2.70
2017-12-27T02:44:25.599Z,2.70
2017-12-27T02:46:53.148Z,2.70
2017-12-27T02:49:20.698Z,2.70
2017-12-27T02:51:48.226Z,2.60
2017-12-27T02:54:15.724Z,2.50
2017-12-27T02:56:43.258Z,2.50
2017-12-27T02:59:10.778Z,2.50
2017-12-27T03:01:38.317Z,2.50
2017-12-27T03:04:05.894Z,2.60
2017-12-27T03:06:34.199Z,2.70
2017-12-27T03:09:01.703Z,2.60
2017-12-27T03:11:29.266Z,2.80
2017-12-27T03:13:56.786Z,2.70
2017-12-27T03:16:24.329Z,2.80
2017-12-27T03:18:51.832Z,2.80
2017-12-27T03:21:19.370Z,2.90
2017-12-27T03:23:46.876Z,2.90
2017-12-27T03:26:15.187Z,3.10
2017-12-27T03:28:42.705Z,3.10
2017-12-27T03:31:10.228Z,3.20
2017-12-27T03:33:38.509Z,3.30
2017-12-27T03:36:06.031Z,3.40
2017-12-27T03:38:33.542Z,3.40
2017-12-27T03:41:01.082Z,3.30
2017-12-27T03:43:29.366Z,3.30
2017-12-27T03:45:56.905Z,3.20
2017-12-27T03:48:24.420Z,3.20
2017-12-27T03:50:51.963Z,3.30
2017-12-27T03:53:19.469Z,3.30
2017-12-27T03:55:46.998Z,3.30
2017-12-27T03:58:15.272Z,3.30
2017-12-27T04:00:42.795Z,3.30
2017-12-27T04:03:11.061Z,3.30
2017-12-27T04:05:38.567Z,3.30
2017-12-27T04:08:06.091Z,3.30
2017-12-27T04:10:33.601Z,3.30
2017-12-27T04:13:01.143Z,3.30
2017-12-27T04:15:29.425Z,3.30
2017-12-27T04:17:57.719Z,3.30
2017-12-27T04:20:25.219Z,3.30
2017-12-27T04:22:53.524Z,3.30
2017-12-27T04:25:21.811Z,3.30
2017-12-27T04:27:49.341Z,3.30
2017-12-27T04:30:16.861Z,3.30
2017-12-27T04:32:44.381Z,3.30
2017-12-27T04:35:12.656Z,3.30
2017-12-27T04:37:40.194Z,3.30
2017-12-27T04:40:07.696Z,3.40
2017-12-27T04:42:35.247Z,3.40
2017-12-27T04:45:02.764Z,3.40
2017-12-27T04:47:30.402Z,3.50
2017-12-27T04:49:58.687Z,3.50
2017-12-27T04:52:26.216Z,3.40
2017-12-27T04:54:53.716Z,3.50
2017-12-27T04:57:21.235Z,3.50
2017-12-27T04:59:50.257Z,3.50
2017-12-27T05:02:17.788Z,3.50
2017-12-27T05:04:45.305Z,3.50
2017-12-27T05:07:12.842Z,3.50
2017-12-27T05:09:40.362Z,3.50
2017-12-27T05:12:07.889Z,3.50
2017-12-27T05:14:36.156Z,3.50
2017-12-27T05:17:03.713Z,3.50
2017-12-27T05:19:31.226Z,3.60
2017-12-27T05:21:58.731Z,3.60
2017-12-27T05:24:26.266Z,3.60
2017-12-27T05:26:53.772Z,3.60
2017-12-27T05:29:21.292Z,3.60
2017-12-27T05:31:48.791Z,3.70
2017-12-27T05:34:17.077Z,3.80
2017-12-27T05:36:45.344Z,3.70
2017-12-27T05:39:12.864Z,3.70
2017-12-27T05:41:41.142Z,3.70
2017-12-27T05:44:08.678Z,3.70
2017-12-27T05:46:36.199Z,3.70
2017-12-27T05:49:03.840Z,3.60
2017-12-27T05:51:32.116Z,3.70
2017-12-27T05:53:59.659Z,3.60
2017-12-27T05:56:27.201Z,3.60
2017-12-27T05:58:55.503Z,3.70
2017-12-27T06:01:23.823Z,3.80
2017-12-27T06:03:51.472Z,3.80
2017-12-27T06:06:18.986Z,3.70
2017-12-27T06:08:47.272Z,3.60
2017-12-27T06:11:15.579Z,3.60
2017-12-27T06:13:43.893Z,3.60
2017-12-27T06:16:12.174Z,3.60
2017-12-27T06:18:40.473Z,3.50
2017-12-27T06:21:07.986Z,3.50
2017-12-27T06:23:35.536Z,3.60
2017-12-27T06:26:03.038Z,3.60
2017-12-27T06:28:31.318Z,3.60
2017-12-27T06:30:58.848Z,3.60
2017-12-27T06:33:26.361Z,3.60
2017-12-27T06:35:53.905Z,3.60
2017-12-27T06:38:21.419Z,3.60
2017-12-27T06:40:48.947Z,3.60
2017-12-27T06:43:17.231Z,3.60
2017-12-27T06:45:44.752Z,3.60
2017-12-27T06:48:13.040Z,3.60
2017-12-27T06:50:41.346Z,3.60
2017-12-27T06:53:09.635Z,3.60
2017-12-27T06:55:37.241Z,3.60
2017-12-27T06:58:05.513Z,3.60
2017-12-27T07:00:33.486Z,3.60
2017-12-27T07:03:01.004Z,3.60
2017-12-27T07:05:28.546Z,3.70
2017-12-27T07:07:56.065Z,3.70
2017-12-27T07:10:23.597Z,3.70
2017-12-27T07:12:51.118Z,3.70
2017-12-27T07:15:18.653Z,3.70
2017-12-27T07:17:46.934Z,3.80
2017-12-27T07:20:15.243Z,3.80
2017-12-27T07:22:43.514Z,3.80
2017-12-27T07:25:11.036Z,3.80
2017-12-27T07:27:39.304Z,3.80
2017-12-27T07:30:06.836Z,3.80
2017-12-27T07:32:34.349Z,3.80
2017-12-27T07:35:01.855Z,3.80
2017-12-27T07:37:29.389Z,3.80
2017-12-27T07:39:56.897Z,3.80
2017-12-27T07:42:24.420Z,3.90
2017-12-27T07:44:51.942Z,3.90
2017-12-27T07:47:19.472Z,3.90
2017-12-27T07:49:46.994Z,4.00
2017-12-27T07:52:15.284Z,4.10
2017-12-27T07:54:43.561Z,4.10
2017-12-27T07:57:11.093Z,4.10
2017-12-27T07:59:38.614Z,4.20
2017-12-27T08:02:06.135Z,4.20
2017-12-27T08:04:33.784Z,4.20
2017-12-27T08:07:01.430Z,4.20
2017-12-27T08:09:28.948Z,4.20
2017-12-27T08:11:56.482Z,4.30
2017-12-27T08:14:24.767Z,4.40
2017-12-27T08:16:53.075Z,4.40
2017-12-27T08:19:20.584Z,4.40
2017-12-27T08:21:48.124Z,4.50
2017-12-27T08:24:15.628Z,4.60
2017-12-27T08:26:43.232Z,4.60
2017-12-27T08:29:11.513Z,4.80
2017-12-27T08:31:39.124Z,4.80
2017-12-27T08:34:06.641Z,4.80
2017-12-27T08:36:34.171Z,4.80
2017-12-27T08:39:02.475Z,4.90
2017-12-27T08:41:30.768Z,5.00
2017-12-27T08:43:59.038Z,5.00
2017-12-27T08:46:26.577Z,4.90
2017-12-27T08:48:54.095Z,5.00
2017-12-27T08:51:21.631Z,5.00
2017-12-27T08:53:49.157Z,5.00
2017-12-27T08:56:18.267Z,5.00
2017-12-27T08:58:45.780Z,5.00
2017-12-27T09:01:14.073Z,5.10
2017-12-27T09:03:41.577Z,5.00
2017-12-27T09:06:09.076Z,5.10
2017-12-27T09:08:36.615Z,5.10
2017-12-27T09:11:04.130Z,5.10
2017-12-27T09:13:31.943Z,5.10
2017-12-27T09:15:59.515Z,5.10
2017-12-27T09:18:27.070Z,5.10
2017-12-27T09:20:54.592Z,5.10
2017-12-27T09:23:22.204Z,5.20
2017-12-27T09:25:49.709Z,5.20
2017-12-27T09:28:17.242Z,5.20
2017-12-27T09:30:44.756Z,5.30
2017-12-27T09:33:12.295Z,5.30
2017-12-27T09:35:39.803Z,5.30
2017-12-27T09:38:07.336Z,5.40
2017-12-27T09:40:34.851Z,5.40
2017-12-27T09:43:03.886Z,5.40
2017-12-27T09:45:31.415Z,5.40
2017-12-27T09:47:58.949Z,5.40
2017-12-27T09:50:26.456Z,5.40
2017-12-27T09:52:54.026Z,5.30
2017-12-27T09:55:21.540Z,5.20
2017-12-27T09:57:49.180Z,5.10
2017-12-27T10:00:16.693Z,5.00
2017-12-27T10:02:44.254Z,4.90
2017-12-27T10:05:12.532Z,4.90
2017-12-27T10:07:40.035Z,4.90
2017-12-27T10:10:07.575Z,5.00
2017-12-27T10:12:35.094Z,5.00
2017-12-27T10:15:03.395Z,5.00
2017-12-27T10:17:30.900Z,5.10
2017-12-27T10:19:58.443Z,5.20
2017-12-27T10:22:25.950Z,5.20
2017-12-27T10:24:53.491Z,5.30
2017-12-27T10:27:21.007Z,5.30
2017-12-27T10:29:48.550Z,5.50
2017-12-27T10:32:16.118Z,5.50
2017-12-27T10:34:43.643Z,5.60
2017-12-27T10:37:11.161Z,5.70
2017-12-27T10:39:38.689Z,5.70
2017-12-27T10:42:06.974Z,5.70
2017-12-27T10:44:34.515Z,5.70
2017-12-27T10:47:02.839Z,5.60
2017-12-27T10:49:30.362Z,5.60
2017-12-27T10:51:58.632Z,5.60
2017-12-27T10:54:26.169Z,5.50
2017-12-27T10:56:53.728Z,5.60
2017-12-27T10:59:21.258Z,5.50
2017-12-27T11:01:48.778Z,5.50
2017-12-27T11:04:16.415Z,5.60
2017-12-27T11:06:44.021Z,5.50
2017-12-27T11:09:16.342Z,5.50
2017-12-27T11:14:20.461Z,5.60
2017-12-27T11:16:47.996Z,5.60
2017-12-27T11:19:15.537Z,5.60
2017-12-27T11:21:43.089Z,5.60
2017-12-27T11:24:11.386Z,5.60
2017-12-27T11:26:38.929Z,5.60
2017-12-27T11:29:06.454Z,5.70
2017-12-27T11:31:34.046Z,5.60
2017-12-27T11:34:02.354Z,5.80
2017-12-27T11:36:30.414Z,5.80
2017-12-27T11:38:57.982Z,5.80
2017-12-27T11:41:25.530Z,5.90
2017-12-27T11:43:53.050Z,6.00
2017-12-27T11:46:21.369Z,6.00
2017-12-27T11:48:48.885Z,6.00
2017-12-27T11:51:16.407Z,6.10
2017-12-27T11:53:44.117Z,6.10
2017-12-27T11:56:11.671Z,6.10
2017-12-27T11:58:40.001Z,6.20
2017-12-27T12:01:08.319Z,6.30
2017-12-27T12:03:35.846Z,6.30
2017-12-27T12:06:03.481Z,6.40
2017-12-27T12:08:31.010Z,6.50
2017-12-27T12:10:58.554Z,6.60
2017-12-27T12:13:26.098Z,6.60
2017-12-27T12:15:53.628Z,6.70
2017-12-27T12:18:21.140Z,6.60
2017-12-27T12:20:48.674Z,6.70
2017-12-27T12:23:16.235Z,6.70
2017-12-27T12:25:43.770Z,6.80
2017-12-27T12:28:11.276Z,6.80
2017-12-27T12:30:38.823Z,6.80
2017-12-27T12:33:06.328Z,6.90
2017-12-27T12:35:34.456Z,6.90
2017-12-27T12:38:01.998Z,6.90
2017-12-27T12:40:29.521Z,6.90
2017-12-27T12:42:58.589Z,6.90
2017-12-27T12:45:26.090Z,6.90
2017-12-27T12:47:53.615Z,6.90
2017-12-27T12:50:21.236Z,6.80
2017-12-27T12:52:49.547Z,6.80
2017-12-27T12:55:17.072Z,6.80
2017-12-27T12:57:44.710Z,6.70
2017-12-27T13:00:12.984Z,6.70
2017-12-27T13:02:40.520Z,6.60
2017-12-27T13:05:08.090Z,6.60
2017-12-27T13:07:35.629Z,6.60
2017-12-27T13:10:03.162Z,6.50
2017-12-27T13:12:30.690Z,6.50
2017-12-27T13:14:58.192Z,6.50
2017-12-27T13:17:26.494Z,6.60
2017-12-27T13:19:54.049Z,6.60
2017-12-27T13:22:21.586Z,6.60
2017-12-27T13:24:49.859Z,6.60
2017-12-27T13:27:18.182Z,6.60
2017-12-27T13:29:46.470Z,6.60
2017-12-27T13:32:14.108Z,6.60
2017-12-27T13:34:41.634Z,6.60
2017-12-27T13:37:09.167Z,6.70
2017-12-27T13:39:36.712Z,6.70
2017-12-27T13:42:04.250Z,6.70
2017-12-27T13:44:31.785Z,6.70
2017-12-27T13:47:00.091Z,6.70
2017-12-27T13:49:27.615Z,6.70
2017-12-27T13:51:55.182Z,6.60
2017-12-27T13:54:22.760Z,6.60
2017-12-27T13:56:51.058Z,6.60
2017-12-27T13:59:19.383Z,6.50
2017-12-27T14:01:46.911Z,6.50
2017-12-27T14:04:15.972Z,6.40
2017-12-27T14:06:43.504Z,6.50
2017-12-27T14:09:11.053Z,6.50
2017-12-27T14:11:38.583Z,6.50
2017-12-27T14:14:06.128Z,6.50
2017-12-27T14:16:33.674Z,6.40
2017-12-27T14:19:01.978Z,6.40
2017-12-27T14:21:30.299Z,6.40
2017-12-27T14:23:58.617Z,6.40
2017-12-27T14:26:26.138Z,6.40
2017-12-27T14:28:53.783Z,6.40
2017-12-27T14:31:21.303Z,6.40
2017-12-27T14:33:48.869Z,6.40
2017-12-27T14:36:16.399Z,6.50
2017-12-27T14:38:44.041Z,6.40
2017-12-27T14:41:11.564Z,6.40
2017-12-27T14:43:39.888Z,6.40
2017-12-27T14:48:47.374Z,6.40
2017-12-27T14:51:14.893Z,6.40
2017-12-27T14:53:42.425Z,6.40
2017-12-27T14:56:10.703Z,6.30
2017-12-27T14:58:38.270Z,6.30
2017-12-27T15:01:05.771Z,6.40
2017-12-27T15:03:33.301Z,6.40
2017-12-27T15:06:00.834Z,6.40
2017-12-27T15:08:28.555Z,6.40
2017-12-27T15:10:56.066Z,6.30
2017-12-27T15:13:24.099Z,6.30
2017-12-27T15:15:51.604Z,6.30
2017-12-27T15:18:19.876Z,6.30
2017-12-27T15:20:47.505Z,6.30
2017-12-27T15:23:15.012Z,6.30
2017-12-27T15:25:42.729Z,6.30
2017-12-27T15:28:10.237Z,6.20
2017-12-27T15:30:37.762Z,6.20
2017-12-27T15:33:05.320Z,6.30
2017-12-27T15:35:33.622Z,6.30
2017-12-27T15:38:01.892Z,6.30
2017-12-27T15:40:29.862Z,6.20
2017-12-27T15:42:57.369Z,6.20
2017-12-27T15:45:25.655Z,6.30
2017-12-27T15:47:53.155Z,6.20
2017-12-27T15:50:20.728Z,6.20
2017-12-27T15:52:48.276Z,6.20
2017-12-27T15:55:15.804Z,6.20
2017-12-27T15:57:43.337Z,6.30
2017-12-27T16:00:10.892Z,6.20
2017-12-27T16:02:38.438Z,6.20
2017-12-27T16:05:06.012Z,6.20
2017-12-27T16:07:33.522Z,6.20
2017-12-27T16:10:01.050Z,6.20
2017-12-27T16:12:28.573Z,6.20
2017-12-27T16:14:56.099Z,6.20
2017-12-27T16:17:24.359Z,6.20
2017-12-27T16:19:51.866Z,6.10
2017-12-27T16:22:19.482Z,6.10
2017-12-27T16:24:47.065Z,6.10
2017-12-27T16:27:15.356Z,6.00
2017-12-27T16:29:42.952Z,6.00
2017-12-27T16:32:11.240Z,6.00
2017-12-27T16:34:38.785Z,6.00
2017-12-27T16:37:06.377Z,6.00
2017-12-27T16:39:33.891Z,6.00
2017-12-27T16:42:01.467Z,5.90
2017-12-27T16:44:29.780Z,5.90
2017-12-27T16:46:57.436Z,5.90
2017-12-27T16:49:24.988Z,5.90
2017-12-27T16:51:53.382Z,6.00
2017-12-27T16:54:20.891Z,5.90
2017-12-27T16:56:48.495Z,6.00
2017-12-27T16:59:16.046Z,6.00
2017-12-27T17:01:43.568Z,6.00
2017-12-27T17:04:11.115Z,6.00
2017-12-27T17:06:38.695Z,6.00
2017-12-27T17:09:06.967Z,6.00
2017-12-27T17:11:34.583Z,5.90
2017-12-27T17:14:02.884Z,6.00
2017-12-27T17:16:31.225Z,5.90
2017-12-27T17:18:58.742Z,5.90
2017-12-27T17:21:26.273Z,5.90
2017-12-27T17:23:53.873Z,5.90
2017-12-27T17:26:21.392Z,5.90
2017-12-27T17:28:49.663Z,5.90
2017-12-27T17:31:17.192Z,5.90
2017-12-27T17:33:44.799Z,6.00
2017-12-27T17:36:12.332Z,5.90
2017-12-27T17:38:39.857Z,5.90
2017-12-27T17:41:07.368Z,5.90
2017-12-27T17:43:35.782Z,5.90
2017-12-27T17:46:03.328Z,5.90
2017-12-27T17:48:30.891Z,5.80
2017-12-27T17:50:58.391Z,5.80
2017-12-27T17:53:25.917Z,5.80
2017-12-27T17:55:53.476Z,5.80
2017-12-27T17:58:21.793Z,5.80
2017-12-27T18:00:50.101Z,5.80
2017-12-27T18:03:17.666Z,5.80
2017-12-27T18:05:46.017Z,5.80
2017-12-27T18:08:13.623Z,5.80
2017-12-27T18:10:41.142Z,5.80
2017-12-27T18:13:09.561Z,5.70
2017-12-27T18:15:37.916Z,5.70
2017-12-27T18:18:06.259Z,5.80
2017-12-27T18:20:34.581Z,5.80
2017-12-27T18:23:02.254Z,5.80
2017-12-27T18:25:29.807Z,5.80
2017-12-27T18:27:57.388Z,5.80
2017-12-27T18:30:25.115Z,5.90
2017-12-27T18:32:52.684Z,5.80
2017-12-27T18:35:20.964Z,5.90
2017-12-27T18:37:48.613Z,5.80
2017-12-27T18:40:16.171Z,5.90
2017-12-27T18:42:43.795Z,5.90
2017-12-27T18:45:11.346Z,5.90
2017-12-27T18:47:38.921Z,6.00
2017-12-27T18:50:07.212Z,6.00
2017-12-27T18:52:34.762Z,5.90
2017-12-27T18:55:02.346Z,6.00
2017-12-27T18:57:30.661Z,6.00
2017-12-27T18:59:58.240Z,5.90
2017-12-27T19:02:25.808Z,6.00
2017-12-27T19:04:53.390Z,5.90
2017-12-27T19:07:21.667Z,5.90
2017-12-27T19:09:50.021Z,5.90
2017-12-27T19:12:17.551Z,5.90
2017-12-27T19:14:45.895Z,5.90
2017-12-27T19:17:13.446Z,5.80
2017-12-27T19:19:41.005Z,5.90
2017-12-27T19:22:08.651Z,5.90
2017-12-27T19:24:36.237Z,5.90
2017-12-27T19:27:03.827Z,5.90
2017-12-27T19:29:31.390Z,5.90
2017-12-27T19:31:58.942Z,5.90
2017-12-27T19:34:27.288Z,6.00
2017-12-27T19:36:54.853Z,5.90
2017-12-27T19:39:23.183Z,6.00
2017-12-27T19:41:50.767Z,6.00
2017-12-27T19:44:18.385Z,6.00
2017-12-27T19:46:46.052Z,6.00
2017-12-27T19:49:13.634Z,6.00
2017-12-27T19:51:41.179Z,6.00
2017-12-27T19:54:08.731Z,6.00
2017-12-27T19:56:36.307Z,6.00
2017-12-27T19:59:03.854Z,6.00
2017-12-27T20:01:31.431Z,6.10
2017-12-27T20:03:59.102Z,6.10
2017-12-27T20:06:26.682Z,6.10
2017-12-27T20:08:54.240Z,6.10
2017-12-27T20:11:21.815Z,6.10
2017-12-27T20:13:49.371Z,6.10
2017-12-27T20:16:16.937Z,5.80
2017-12-27T20:18:44.492Z,5.60
2017-12-27T20:21:12.911Z,4.90
2017-12-27T20:23:40.459Z,4.90
2017-12-27T20:26:08.035Z,4.80
2017-12-27T20:28:35.586Z,4.70
2017-12-27T20:31:03.169Z,4.60
2017-12-27T20:33:31.505Z,4.50
2017-12-27T20:35:59.074Z,4.50
2017-12-27T20:38:27.466Z,4.50
2017-12-27T20:40:55.064Z,4.50
2017-12-27T20:43:22.627Z,4.50
2017-12-27T20:45:50.231Z,4.60
2017-12-27T20:48:18.542Z,4.60
2017-12-27T20:50:46.884Z,4.60
2017-12-27T20:53:14.452Z,4.50
2017-12-27T20:55:42.032Z,4.60
2017-12-27T20:58:09.587Z,4.60
2017-12-27T21:00:37.911Z,4.60
2017-12-27T21:03:05.482Z,4.60
2017-12-27T21:05:33.802Z,4.60
2017-12-27T21:08:01.376Z,4.60
2017-12-27T21:10:29.699Z,4.60
2017-12-27T21:12:57.285Z,4.60
2017-12-27T21:15:26.086Z,4.60
2017-12-27T21:17:53.660Z,4.60
2017-12-27T21:20:21.249Z,4.50
2017-12-27T21:22:48.823Z,4.40
2017-12-27T21:25:17.168Z,4.30
2017-12-27T21:27:45.510Z,4.30
2017-12-27T21:30:13.064Z,4.30
2017-12-27T21:32:41.478Z,4.20
2017-12-27T21:35:09.035Z,4.20
2017-12-27T21:37:37.374Z,4.20
2017-12-27T21:40:04.948Z,4.20
2017-12-27T21:42:32.891Z,4.20
2017-12-27T21:45:00.448Z,4.20
2017-12-27T21:47:33.625Z,4.20
2017-12-27T21:50:01.957Z,4.20
2017-12-27T21:52:30.332Z,4.20
2017-12-27T21:54:58.663Z,4.20
2017-12-27T21:57:27.837Z,4.20
2017-12-27T22:00:01.783Z,4.20
2017-12-27T22:02:29.362Z,4.20
2017-12-27T22:04:57.733Z,4.10
2017-12-27T22:07:25.937Z,4.10
2017-12-27T22:09:53.542Z,4.10
2017-12-27T22:12:21.885Z,4.10
2017-12-27T22:14:50.207Z,4.00
2017-12-27T22:17:17.783Z,4.00
2017-12-27T22:19:46.100Z,4.00
2017-12-27T22:22:13.653Z,4.00
2017-12-27T22:24:41.999Z,4.00
2017-12-27T22:27:10.322Z,4.00
2017-12-27T22:29:37.891Z,4.00
2017-12-27T22:32:05.460Z,4.00
2017-12-27T22:34:33.031Z,3.90
2017-12-27T22:37:00.596Z,3.90
2017-12-27T22:39:28.172Z,3.90
2017-12-27T22:41:56.209Z,3.90
2017-12-27T22:44:24.557Z,3.90
2017-12-27T22:46:52.884Z,4.00
2017-12-27T22:49:20.457Z,3.90
2017-12-27T22:51:48.006Z,3.90
2017-12-27T22:54:15.615Z,4.00
2017-12-27T22:56:44.025Z,3.90
2017-12-27T22:59:11.626Z,3.90
2017-12-27T23:01:39.947Z,3.90
2017-12-27T23:04:07.516Z,3.90
2017-12-27T23:06:35.072Z,4.00
2017-12-27T23:09:03.427Z,3.90
2017-12-27T23:11:30.984Z,3.90
2017-12-27T23:13:59.437Z,3.90
2017-12-27T23:16:27.020Z,3.90
2017-12-27T23:18:54.602Z,3.90
2017-12-27T23:21:22.161Z,3.90
2017-12-27T23:23:49.727Z,3.90
2017-12-27T23:26:18.041Z,3.90
2017-12-27T23:28:45.702Z,3.90
2017-12-27T23:31:13.304Z,3.90
2017-12-27T23:33:40.888Z,3.80
2017-12-27T23:36:08.449Z,3.80
2017-12-27T23:38:36.003Z,3.70
2017-12-27T23:41:04.329Z,3.60
2017-12-27T23:43:31.882Z,3.60
2017-12-27T23:46:00.211Z,3.60
2017-12-27T23:48:29.718Z,3.50
2017-12-27T23:50:58.046Z,3.50
2017-12-27T23:53:26.221Z,3.50
2017-12-27T23:55:54.611Z,3.40
2017-12-27T23:58:22.165Z,3.40
